RBL1 CYYJ-CYYJ
Flight info
| Callsign | RBL1 |
|---|---|
| Flight time | 0h 2m |
| Altitude | 1000 |
| Route | VFR |
| Aircraft | E300/L-VGD/A |
Departure
| Time | 2026-05-03 22:41 |
|---|---|
| Airport | Victoria International Airport (CYYJ) |
Arrival
| Time | 2026-05-03 22:43 |
|---|---|
| Airport | Victoria International Airport (CYYJ) |
| Time | Latitude | Longitude | Altitude | Speed | Heading |
|---|---|---|---|---|---|
| 2026-05-03 22:38 | 48.64602 | -123.42180 | 54 ft | 0 kts | 352° |
| 2026-05-03 22:39 | 48.64602 | -123.42181 | 58 ft | 0 kts | 354° |
| 2026-05-03 22:39 | 48.64726 | -123.42186 | 65 ft | 25 kts | 292° |
| 2026-05-03 22:39 | 48.64775 | -123.42455 | 61 ft | 0 kts | 287° |
| 2026-05-03 22:39 | 48.64844 | -123.42775 | 61 ft | 29 kts | 283° |
| 2026-05-03 22:40 | 48.64934 | -123.43253 | 63 ft | 58 kts | 288° |
| 2026-05-03 22:40 | 48.64980 | -123.43504 | 58 ft | 46 kts | 297° |
| 2026-05-03 22:40 | 48.65050 | -123.43823 | 53 ft | 0 kts | 319° |
| 2026-05-03 22:40 | 48.65136 | -123.43893 | 70 ft | 64 kts | 30° |
| 2026-05-03 22:41 | 48.65049 | -123.43097 | 718 ft | 108 kts | 103° |
| 2026-05-03 22:41 | 48.64613 | -123.41872 | 1167 ft | 179 kts | 161° |
| 2026-05-03 22:41 | 48.63677 | -123.42917 | 376 ft | 159 kts | 267° |
| 2026-05-03 22:41 | 48.63975 | -123.44622 | 473 ft | 187 kts | 320° |
| 2026-05-03 22:42 | 48.65141 | -123.44896 | 367 ft | 183 kts | 62° |
| 2026-05-03 22:42 | 48.64955 | -123.42819 | 96 ft | 218 kts | 107° |
| 2026-05-03 22:42 | 48.64437 | -123.40679 | 211 ft | 224 kts | 173° |
| 2026-05-03 22:42 | 48.63645 | -123.42151 | 259 ft | 172 kts | 333° |
| 2026-05-03 22:43 | 48.64723 | -123.42911 | 58 ft | 125 kts | 338° |
| 2026-05-03 22:43 | 48.65509 | -123.42985 | 351 ft | 170 kts | 76° |
| 2026-05-03 22:43 | 48.65157 | -123.42266 | 196 ft | 195 kts | 206° |
| 2026-05-03 22:43 | 48.64250 | -123.43810 | 107 ft | 21 kts | 287° |
| 2026-05-03 22:44 | 48.64565 | -123.44136 | 212 ft | 131 kts | 336° |
| 2026-05-03 22:44 | 48.64964 | -123.42800 | 70 ft | 203 kts | 107° |
| 2026-05-03 22:44 | 48.64686 | -123.41363 | 62 ft | 213 kts | 106° |
| 2026-05-03 22:44 | 48.63760 | -123.41880 | 238 ft | 206 kts | 255° |
| 2026-05-03 22:45 | 48.64134 | -123.43583 | 298 ft | 171 kts | 22° |
| 2026-05-03 22:45 | 48.65085 | -123.42343 | 222 ft | 195 kts | 45° |
| 2026-05-03 22:45 | 48.64571 | -123.40678 | 323 ft | 192 kts | 195° |
| 2026-05-03 22:45 | 48.63925 | -123.42570 | 396 ft | 224 kts | 259° |
| 2026-05-03 22:46 | 48.64436 | -123.44323 | 304 ft | 223 kts | 5° |
| 2026-05-03 22:46 | 48.64863 | -123.43073 | 364 ft | 198 kts | 157° |
| 2026-05-03 22:46 | 48.64003 | -123.43214 | 692 ft | 184 kts | 287° |
| 2026-05-03 22:46 | 48.65034 | -123.44367 | 586 ft | 215 kts | 358° |
| 2026-05-03 22:47 | 48.64773 | -123.42973 | 63 ft | 238 kts | 153° |
| 2026-05-03 22:47 | 48.63787 | -123.42796 | 346 ft | 150 kts | 271° |
| 2026-05-03 22:47 | 48.63982 | -123.44101 | 760 ft | 168 kts | 305° |
| 2026-05-03 22:47 | 48.65186 | -123.44804 | 575 ft | 213 kts | 2° |
| 2026-05-03 22:48 | 48.65571 | -123.43535 | 406 ft | 157 kts | 140° |
| 2026-05-03 22:48 | 48.64689 | -123.42873 | 56 ft | 66 kts | 160° |
| 2026-05-03 22:48 | 48.64492 | -123.42709 | 55 ft | 34 kts | 195° |
| 2026-05-03 22:48 | 48.64475 | -123.43227 | 463 ft | 85 kts | 26° |
| 2026-05-03 22:49 | 48.65134 | -123.42168 | 399 ft | 171 kts | 45° |
| 2026-05-03 22:49 | 48.65467 | -123.42752 | 606 ft | 199 kts | 227° |
| 2026-05-03 22:49 | 48.64334 | -123.43826 | 209 ft | 157 kts | 132° |
| 2026-05-03 22:49 | 48.64515 | -123.42963 | 166 ft | 94 kts | 95° |
| 2026-05-03 22:50 | 48.64473 | -123.42273 | 56 ft | 15 kts | 53° |
| 2026-05-03 22:50 | 48.64484 | -123.42253 | 58 ft | 0 kts | 54° |